NFC5156 EDDK-LFPG
Flight info
| Callsign | NFC5156 |
|---|---|
| Flight time | 0h 55m |
| Altitude | 24000 |
| Route | NVO2R NVO Y868 SOGRI UM617 SISGA UZ319 DELOM DCT MOPIL MOPIL9E |
| Aircraft | MD11/H-SDE1E2E3FGHIJ2J3J4J5M1RWXY/LB1D1 |
Departure
| Time | 2026-05-04 18:53 |
|---|---|
| Airport | Cologne Bonn Airport (EDDK) |
Arrival
| Time | 2026-05-04 19:49 |
|---|---|
| Airport | Charles de Gaulle International Airport (LFPG) |
| Time | Latitude | Longitude | Altitude | Speed | Heading |
|---|---|---|---|---|---|
| 2026-05-04 18:09 | 50.86905 | 7.12923 | 247 ft | 0 kts | 47° |
| 2026-05-04 18:36 | 50.86904 | 7.12921 | 247 ft | 2 kts | 47° |
| 2026-05-04 18:37 | 50.86886 | 7.12891 | 247 ft | 4 kts | 47° |
| 2026-05-04 18:37 | 50.86868 | 7.12859 | 247 ft | 4 kts | 47° |
| 2026-05-04 18:37 | 50.86854 | 7.12835 | 247 ft | 4 kts | 58° |
| 2026-05-04 18:37 | 50.86846 | 7.12804 | 247 ft | 4 kts | 99° |
| 2026-05-04 18:38 | 50.86854 | 7.12773 | 246 ft | 3 kts | 137° |
| 2026-05-04 18:38 | 50.86872 | 7.12746 | 246 ft | 2 kts | 137° |
| 2026-05-04 18:38 | 50.86874 | 7.12744 | 246 ft | 0 kts | 137° |
| 2026-05-04 18:42 | 50.86873 | 7.12745 | 246 ft | 1 kts | 137° |
| 2026-05-04 18:42 | 50.86852 | 7.12776 | 246 ft | 7 kts | 137° |
| 2026-05-04 18:42 | 50.86801 | 7.12848 | 248 ft | 12 kts | 137° |
| 2026-05-04 18:42 | 50.86733 | 7.12948 | 250 ft | 13 kts | 137° |
| 2026-05-04 18:43 | 50.86671 | 7.13038 | 252 ft | 11 kts | 137° |
| 2026-05-04 18:43 | 50.86622 | 7.13109 | 254 ft | 8 kts | 137° |
| 2026-05-04 18:43 | 50.86580 | 7.13169 | 255 ft | 10 kts | 137° |
| 2026-05-04 18:43 | 50.86518 | 7.13260 | 256 ft | 15 kts | 137° |
| 2026-05-04 18:44 | 50.86497 | 7.13373 | 257 ft | 5 kts | 66° |
| 2026-05-04 18:44 | 50.86516 | 7.13426 | 256 ft | 12 kts | 60° |
| 2026-05-04 18:44 | 50.86592 | 7.13662 | 256 ft | 21 kts | 64° |
| 2026-05-04 18:44 | 50.86650 | 7.13853 | 260 ft | 18 kts | 64° |
| 2026-05-04 18:45 | 50.86698 | 7.14014 | 263 ft | 15 kts | 64° |
| 2026-05-04 18:45 | 50.86722 | 7.14108 | 263 ft | 5 kts | 82° |
| 2026-05-04 18:45 | 50.86717 | 7.14143 | 264 ft | 1 kts | 110° |
| 2026-05-04 18:45 | 50.86715 | 7.14149 | 264 ft | 1 kts | 114° |
| 2026-05-04 18:46 | 50.86709 | 7.14164 | 268 ft | 2 kts | 122° |
| 2026-05-04 18:46 | 50.86696 | 7.14185 | 267 ft | 3 kts | 135° |
| 2026-05-04 18:46 | 50.86694 | 7.14188 | 266 ft | 0 kts | 135° |
| 2026-05-04 18:47 | 50.86687 | 7.14199 | 266 ft | 3 kts | 135° |
| 2026-05-04 18:47 | 50.86662 | 7.14238 | 268 ft | 7 kts | 136° |
| 2026-05-04 18:47 | 50.86614 | 7.14311 | 269 ft | 13 kts | 136° |
| 2026-05-04 18:48 | 50.86537 | 7.14424 | 271 ft | 15 kts | 137° |
| 2026-05-04 18:48 | 50.86472 | 7.14520 | 275 ft | 11 kts | 137° |
| 2026-05-04 18:48 | 50.86425 | 7.14588 | 278 ft | 9 kts | 138° |
| 2026-05-04 18:48 | 50.86369 | 7.14668 | 281 ft | 13 kts | 138° |
| 2026-05-04 18:49 | 50.86295 | 7.14772 | 285 ft | 16 kts | 138° |
| 2026-05-04 18:49 | 50.86207 | 7.14898 | 295 ft | 17 kts | 137° |
| 2026-05-04 18:49 | 50.86127 | 7.15014 | 298 ft | 16 kts | 137° |
| 2026-05-04 18:49 | 50.86032 | 7.15152 | 302 ft | 21 kts | 137° |
| 2026-05-04 18:50 | 50.85919 | 7.15317 | 303 ft | 22 kts | 137° |
| 2026-05-04 18:50 | 50.85812 | 7.15472 | 308 ft | 19 kts | 137° |
| 2026-05-04 18:50 | 50.85720 | 7.15605 | 309 ft | 17 kts | 137° |
| 2026-05-04 18:50 | 50.85625 | 7.15744 | 313 ft | 20 kts | 137° |
| 2026-05-04 18:51 | 50.85523 | 7.15893 | 315 ft | 18 kts | 137° |
| 2026-05-04 18:51 | 50.85493 | 7.15998 | 317 ft | 7 kts | 75° |
| 2026-05-04 18:51 | 50.85522 | 7.16068 | 318 ft | 10 kts | 48° |
| 2026-05-04 18:51 | 50.85581 | 7.16164 | 316 ft | 15 kts | 46° |
| 2026-05-04 18:52 | 50.85638 | 7.16257 | 317 ft | 10 kts | 46° |
| 2026-05-04 18:52 | 50.85675 | 7.16308 | 317 ft | 2 kts | 21° |
| 2026-05-04 18:52 | 50.85695 | 7.16298 | 315 ft | 5 kts | 339° |
| 2026-05-04 18:52 | 50.85739 | 7.16250 | 315 ft | 11 kts | 319° |
| 2026-05-04 18:53 | 50.85837 | 7.16112 | 313 ft | 36 kts | 318° |
| 2026-05-04 18:53 | 50.86196 | 7.15593 | 301 ft | 118 kts | 317° |
| 2026-05-04 18:53 | 50.87021 | 7.14410 | 472 ft | 184 kts | 318° |
| 2026-05-04 18:53 | 50.87991 | 7.13015 | 1609 ft | 194 kts | 316° |
| 2026-05-04 18:54 | 50.88989 | 7.11529 | 2738 ft | 203 kts | 315° |
| 2026-05-04 18:54 | 50.90046 | 7.09960 | 3728 ft | 214 kts | 313° |
| 2026-05-04 18:54 | 50.90937 | 7.08090 | 4219 ft | 224 kts | 290° |
| 2026-05-04 18:54 | 50.91109 | 7.05564 | 4632 ft | 249 kts | 259° |
| 2026-05-04 18:55 | 50.90684 | 7.02834 | 4941 ft | 259 kts | 250° |
| 2026-05-04 18:55 | 50.89535 | 6.97408 | 4988 ft | 261 kts | 249° |
| 2026-05-04 18:55 | 50.88952 | 6.94705 | 4990 ft | 259 kts | 249° |
| 2026-05-04 18:56 | 50.88371 | 6.91998 | 6165 ft | 254 kts | 248° |
| 2026-05-04 18:56 | 50.87905 | 6.89269 | 7375 ft | 261 kts | 258° |
| 2026-05-04 18:56 | 50.87748 | 6.86362 | 8557 ft | 268 kts | 263° |
| 2026-05-04 18:56 | 50.87654 | 6.83378 | 9735 ft | 274 kts | 263° |
| 2026-05-04 18:57 | 50.87550 | 6.80287 | 10377 ft | 297 kts | 263° |
| 2026-05-04 18:57 | 50.87414 | 6.76851 | 10514 ft | 329 kts | 263° |
| 2026-05-04 18:57 | 50.87250 | 6.73095 | 10827 ft | 350 kts | 263° |
| 2026-05-04 18:57 | 50.87073 | 6.69231 | 11598 ft | 355 kts | 263° |
| 2026-05-04 18:58 | 50.86888 | 6.65362 | 12391 ft | 360 kts | 263° |
| 2026-05-04 18:58 | 50.86690 | 6.61383 | 13167 ft | 365 kts | 263° |
| 2026-05-04 18:58 | 50.86483 | 6.57354 | 13923 ft | 370 kts | 263° |
| 2026-05-04 18:58 | 50.86268 | 6.53276 | 14609 ft | 374 kts | 263° |
| 2026-05-04 18:59 | 50.86048 | 6.49149 | 15299 ft | 378 kts | 263° |
| 2026-05-04 18:59 | 50.85823 | 6.44984 | 15999 ft | 382 kts | 263° |
| 2026-05-04 18:59 | 50.85592 | 6.40764 | 16704 ft | 386 kts | 263° |
| 2026-05-04 18:59 | 50.85358 | 6.36511 | 17375 ft | 391 kts | 263° |
| 2026-05-04 19:00 | 50.85120 | 6.32211 | 18067 ft | 395 kts | 263° |
| 2026-05-04 19:00 | 50.84876 | 6.27850 | 18692 ft | 399 kts | 263° |
| 2026-05-04 19:00 | 50.84631 | 6.23470 | 19311 ft | 401 kts | 263° |
| 2026-05-04 19:00 | 50.84377 | 6.19059 | 19919 ft | 405 kts | 263° |
| 2026-05-04 19:01 | 50.84121 | 6.14597 | 20518 ft | 407 kts | 263° |
| 2026-05-04 19:01 | 50.83867 | 6.10125 | 21122 ft | 411 kts | 263° |
| 2026-05-04 19:01 | 50.83619 | 6.05608 | 21727 ft | 413 kts | 263° |
| 2026-05-04 19:01 | 50.83359 | 6.01062 | 22321 ft | 417 kts | 263° |
| 2026-05-04 19:02 | 50.83088 | 5.96478 | 22811 ft | 419 kts | 262° |
| 2026-05-04 19:02 | 50.82835 | 5.91870 | 23228 ft | 422 kts | 263° |
| 2026-05-04 19:02 | 50.82659 | 5.87225 | 23626 ft | 424 kts | 265° |
| 2026-05-04 19:02 | 50.82535 | 5.82551 | 23878 ft | 427 kts | 265° |
| 2026-05-04 19:03 | 50.82432 | 5.77924 | 23940 ft | 418 kts | 265° |
| 2026-05-04 19:03 | 50.82340 | 5.73477 | 23956 ft | 393 kts | 265° |
| 2026-05-04 19:03 | 50.82253 | 5.69210 | 23965 ft | 385 kts | 265° |
| 2026-05-04 19:03 | 50.82162 | 5.64992 | 23964 ft | 384 kts | 265° |
| 2026-05-04 19:04 | 50.82064 | 5.60766 | 23966 ft | 384 kts | 265° |
| 2026-05-04 19:04 | 50.81966 | 5.56553 | 23963 ft | 384 kts | 265° |
| 2026-05-04 19:04 | 50.81869 | 5.52339 | 23965 ft | 384 kts | 265° |
| 2026-05-04 19:04 | 50.81770 | 5.48116 | 23965 ft | 384 kts | 265° |
| 2026-05-04 19:05 | 50.81670 | 5.43884 | 23963 ft | 384 kts | 265° |
| 2026-05-04 19:05 | 50.81569 | 5.39661 | 23966 ft | 385 kts | 265° |
| 2026-05-04 19:05 | 50.81467 | 5.35428 | 23965 ft | 385 kts | 265° |
| 2026-05-04 19:05 | 50.81364 | 5.31194 | 23963 ft | 385 kts | 265° |
| 2026-05-04 19:06 | 50.81258 | 5.26951 | 23958 ft | 386 kts | 265° |
| 2026-05-04 19:06 | 50.81150 | 5.22709 | 23964 ft | 386 kts | 265° |
| 2026-05-04 19:06 | 50.81041 | 5.18466 | 23965 ft | 386 kts | 265° |
| 2026-05-04 19:06 | 50.80968 | 5.15646 | 23962 ft | 387 kts | 265° |
| 2026-05-04 19:07 | 50.80857 | 5.11405 | 23960 ft | 387 kts | 265° |
| 2026-05-04 19:07 | 50.80738 | 5.07158 | 23961 ft | 386 kts | 264° |
| 2026-05-04 19:07 | 50.80355 | 5.02960 | 23959 ft | 385 kts | 256° |
| 2026-05-04 19:07 | 50.79696 | 4.98863 | 23959 ft | 384 kts | 252° |
| 2026-05-04 19:08 | 50.78678 | 4.93498 | 23962 ft | 385 kts | 251° |
| 2026-05-04 19:08 | 50.78147 | 4.90771 | 23959 ft | 385 kts | 251° |
| 2026-05-04 19:08 | 50.77360 | 4.86721 | 23960 ft | 385 kts | 251° |
| 2026-05-04 19:08 | 50.76584 | 4.82675 | 23961 ft | 386 kts | 251° |
| 2026-05-04 19:09 | 50.75812 | 4.78612 | 23961 ft | 386 kts | 252° |
| 2026-05-04 19:09 | 50.75045 | 4.74552 | 23962 ft | 386 kts | 252° |
| 2026-05-04 19:09 | 50.74280 | 4.70486 | 23960 ft | 386 kts | 252° |
| 2026-05-04 19:09 | 50.73527 | 4.66477 | 23962 ft | 386 kts | 252° |
| 2026-05-04 19:10 | 50.72761 | 4.62413 | 23964 ft | 386 kts | 252° |
| 2026-05-04 19:10 | 50.72240 | 4.59670 | 23964 ft | 386 kts | 252° |
| 2026-05-04 19:10 | 50.71212 | 4.54294 | 23962 ft | 387 kts | 252° |
| 2026-05-04 19:10 | 50.70437 | 4.50233 | 23965 ft | 387 kts | 252° |
| 2026-05-04 19:11 | 50.69662 | 4.46166 | 23963 ft | 387 kts | 252° |
| 2026-05-04 19:11 | 50.68884 | 4.42100 | 23963 ft | 388 kts | 252° |
| 2026-05-04 19:11 | 50.68103 | 4.38015 | 23961 ft | 388 kts | 252° |
| 2026-05-04 19:11 | 50.67326 | 4.33950 | 23964 ft | 387 kts | 252° |
| 2026-05-04 19:12 | 50.66545 | 4.29882 | 23962 ft | 388 kts | 252° |
| 2026-05-04 19:12 | 50.64977 | 4.21736 | 23959 ft | 388 kts | 252° |
| 2026-05-04 19:12 | 50.64173 | 4.17663 | 23956 ft | 389 kts | 250° |
| 2026-05-04 19:13 | 50.63119 | 4.13765 | 23952 ft | 387 kts | 240° |
| 2026-05-04 19:13 | 50.61531 | 4.10366 | 23954 ft | 386 kts | 224° |
| 2026-05-04 19:13 | 50.59395 | 4.07830 | 23955 ft | 385 kts | 207° |
| 2026-05-04 19:13 | 50.56891 | 4.06392 | 23958 ft | 385 kts | 191° |
| 2026-05-04 19:14 | 50.54382 | 4.06050 | 23961 ft | 386 kts | 180° |
| 2026-05-04 19:14 | 50.51697 | 4.06281 | 23961 ft | 387 kts | 175° |
| 2026-05-04 19:14 | 50.49016 | 4.06703 | 23960 ft | 387 kts | 174° |
| 2026-05-04 19:14 | 50.46343 | 4.07137 | 23960 ft | 386 kts | 175° |
| 2026-05-04 19:15 | 50.43670 | 4.07537 | 23957 ft | 386 kts | 175° |
| 2026-05-04 19:15 | 50.41026 | 4.07888 | 23958 ft | 386 kts | 176° |
| 2026-05-04 19:15 | 50.38351 | 4.08212 | 23957 ft | 386 kts | 176° |
| 2026-05-04 19:15 | 50.35677 | 4.08517 | 23958 ft | 385 kts | 176° |
| 2026-05-04 19:16 | 50.33005 | 4.08812 | 23958 ft | 385 kts | 176° |
| 2026-05-04 19:16 | 50.30328 | 4.08772 | 23953 ft | 385 kts | 189° |
| 2026-05-04 19:16 | 50.27768 | 4.07634 | 23958 ft | 383 kts | 202° |
| 2026-05-04 19:16 | 50.25322 | 4.05958 | 23953 ft | 383 kts | 205° |
| 2026-05-04 19:17 | 50.22895 | 4.04240 | 23948 ft | 383 kts | 204° |
| 2026-05-04 19:17 | 50.20431 | 4.02616 | 23950 ft | 384 kts | 202° |
| 2026-05-04 19:17 | 50.17939 | 4.01103 | 23948 ft | 384 kts | 201° |
| 2026-05-04 19:17 | 50.15433 | 3.99675 | 23949 ft | 384 kts | 200° |
| 2026-05-04 19:18 | 50.12912 | 3.98296 | 23948 ft | 384 kts | 199° |
| 2026-05-04 19:18 | 50.10384 | 3.96948 | 23948 ft | 384 kts | 199° |
| 2026-05-04 19:18 | 50.07798 | 3.95967 | 23943 ft | 384 kts | 185° |
| 2026-05-04 19:18 | 50.05137 | 3.96182 | 23945 ft | 385 kts | 168° |
| 2026-05-04 19:19 | 50.02607 | 3.97526 | 23951 ft | 386 kts | 157° |
| 2026-05-04 19:19 | 50.00189 | 3.99357 | 23951 ft | 386 kts | 153° |
| 2026-05-04 19:19 | 49.97816 | 4.01318 | 23948 ft | 386 kts | 153° |
| 2026-05-04 19:19 | 49.95457 | 4.03314 | 23948 ft | 386 kts | 152° |
| 2026-05-04 19:20 | 49.93135 | 4.05295 | 23948 ft | 386 kts | 152° |
| 2026-05-04 19:20 | 49.90811 | 4.07280 | 23948 ft | 386 kts | 152° |
| 2026-05-04 19:20 | 49.88460 | 4.09290 | 23949 ft | 386 kts | 152° |
| 2026-05-04 19:20 | 49.86111 | 4.11299 | 23950 ft | 385 kts | 152° |
| 2026-05-04 19:21 | 49.83728 | 4.13336 | 23733 ft | 403 kts | 152° |
| 2026-05-04 19:21 | 49.81189 | 4.15499 | 23372 ft | 424 kts | 152° |
| 2026-05-04 19:21 | 49.78585 | 4.17710 | 22957 ft | 428 kts | 152° |
| 2026-05-04 19:21 | 49.76000 | 4.19904 | 22548 ft | 415 kts | 152° |
| 2026-05-04 19:22 | 49.73508 | 4.21911 | 22141 ft | 394 kts | 159° |
| 2026-05-04 19:22 | 49.70911 | 4.22962 | 21742 ft | 381 kts | 174° |
| 2026-05-04 19:22 | 49.68276 | 4.23211 | 21352 ft | 378 kts | 180° |
| 2026-05-04 19:22 | 49.65664 | 4.23207 | 20938 ft | 375 kts | 181° |
| 2026-05-04 19:23 | 49.63076 | 4.22934 | 20504 ft | 371 kts | 192° |
| 2026-05-04 19:23 | 49.60684 | 4.21569 | 20070 ft | 366 kts | 211° |
| 2026-05-04 19:23 | 49.58740 | 4.19090 | 19714 ft | 362 kts | 231° |
| 2026-05-04 19:23 | 49.57469 | 4.15738 | 19723 ft | 364 kts | 247° |
| 2026-05-04 19:24 | 49.56655 | 4.12036 | 19725 ft | 366 kts | 252° |
| 2026-05-04 19:24 | 49.55950 | 4.08318 | 19724 ft | 366 kts | 253° |
| 2026-05-04 19:24 | 49.55206 | 4.04564 | 19723 ft | 366 kts | 251° |
| 2026-05-04 19:24 | 49.54406 | 4.00842 | 19721 ft | 366 kts | 250° |
| 2026-05-04 19:25 | 49.53556 | 3.97140 | 19723 ft | 366 kts | 249° |
| 2026-05-04 19:25 | 49.52676 | 3.93463 | 19720 ft | 366 kts | 249° |
| 2026-05-04 19:25 | 49.51775 | 3.89785 | 19424 ft | 366 kts | 249° |
| 2026-05-04 19:25 | 49.50868 | 3.86134 | 19050 ft | 365 kts | 248° |
| 2026-05-04 19:26 | 49.49957 | 3.82501 | 18644 ft | 364 kts | 248° |
| 2026-05-04 19:26 | 49.49048 | 3.78887 | 18169 ft | 361 kts | 249° |
| 2026-05-04 19:26 | 49.48141 | 3.75290 | 17628 ft | 360 kts | 249° |
| 2026-05-04 19:26 | 49.47241 | 3.71721 | 17089 ft | 357 kts | 249° |
| 2026-05-04 19:27 | 49.46342 | 3.68169 | 16571 ft | 355 kts | 249° |
| 2026-05-04 19:27 | 49.45454 | 3.64659 | 16085 ft | 350 kts | 249° |
| 2026-05-04 19:27 | 49.44673 | 3.61091 | 15707 ft | 352 kts | 253° |
| 2026-05-04 19:27 | 49.44010 | 3.57467 | 15333 ft | 351 kts | 255° |
| 2026-05-04 19:28 | 49.43394 | 3.53851 | 15031 ft | 349 kts | 255° |
| 2026-05-04 19:28 | 49.42789 | 3.50234 | 14956 ft | 350 kts | 256° |
| 2026-05-04 19:28 | 49.42154 | 3.46625 | 14942 ft | 351 kts | 252° |
| 2026-05-04 19:28 | 49.41347 | 3.43092 | 14941 ft | 351 kts | 249° |
| 2026-05-04 19:29 | 49.40451 | 3.39617 | 14938 ft | 350 kts | 248° |
| 2026-05-04 19:29 | 49.39525 | 3.36151 | 14938 ft | 350 kts | 248° |
| 2026-05-04 19:29 | 49.38597 | 3.32688 | 14937 ft | 351 kts | 248° |
| 2026-05-04 19:29 | 49.37666 | 3.29228 | 14939 ft | 351 kts | 247° |
| 2026-05-04 19:30 | 49.36748 | 3.25799 | 14939 ft | 351 kts | 248° |
| 2026-05-04 19:30 | 49.35820 | 3.22337 | 14939 ft | 351 kts | 247° |
| 2026-05-04 19:30 | 49.34890 | 3.18876 | 14938 ft | 351 kts | 247° |
| 2026-05-04 19:30 | 49.33961 | 3.15413 | 14939 ft | 351 kts | 247° |
| 2026-05-04 19:31 | 49.33031 | 3.11947 | 14936 ft | 351 kts | 248° |
| 2026-05-04 19:31 | 49.32100 | 3.08474 | 14939 ft | 351 kts | 247° |
| 2026-05-04 19:31 | 49.31169 | 3.05011 | 14936 ft | 351 kts | 247° |
| 2026-05-04 19:31 | 49.30238 | 3.01551 | 14936 ft | 352 kts | 247° |
| 2026-05-04 19:32 | 49.29302 | 2.98079 | 14938 ft | 352 kts | 247° |
| 2026-05-04 19:32 | 49.28364 | 2.94612 | 14938 ft | 352 kts | 247° |
| 2026-05-04 19:32 | 49.27428 | 2.91146 | 14940 ft | 352 kts | 247° |
| 2026-05-04 19:32 | 49.26493 | 2.87681 | 14931 ft | 351 kts | 247° |
| 2026-05-04 19:33 | 49.25567 | 2.84263 | 14203 ft | 348 kts | 247° |
| 2026-05-04 19:33 | 49.25251 | 2.83098 | 14051 ft | 345 kts | 247° |
| 2026-05-04 19:33 | 49.24476 | 2.80245 | 13767 ft | 349 kts | 247° |
| 2026-05-04 19:33 | 49.23547 | 2.76832 | 13368 ft | 347 kts | 247° |
| 2026-05-04 19:34 | 49.22631 | 2.73469 | 12968 ft | 346 kts | 247° |
| 2026-05-04 19:34 | 49.21707 | 2.70086 | 12583 ft | 344 kts | 247° |
| 2026-05-04 19:34 | 49.20788 | 2.66722 | 12195 ft | 342 kts | 247° |
| 2026-05-04 19:34 | 49.19875 | 2.63381 | 11802 ft | 340 kts | 247° |
| 2026-05-04 19:35 | 49.18965 | 2.60056 | 11427 ft | 336 kts | 247° |
| 2026-05-04 19:35 | 49.18257 | 2.56751 | 11052 ft | 320 kts | 259° |
| 2026-05-04 19:35 | 49.17994 | 2.53444 | 10688 ft | 307 kts | 266° |
| 2026-05-04 19:35 | 49.17896 | 2.50245 | 10313 ft | 297 kts | 268° |
| 2026-05-04 19:36 | 49.17838 | 2.47142 | 9952 ft | 289 kts | 269° |
| 2026-05-04 19:36 | 49.17783 | 2.44090 | 9574 ft | 285 kts | 269° |
| 2026-05-04 19:36 | 49.17728 | 2.41072 | 9174 ft | 283 kts | 269° |
| 2026-05-04 19:36 | 49.17672 | 2.38094 | 8968 ft | 278 kts | 268° |
| 2026-05-04 19:37 | 49.17602 | 2.35123 | 8947 ft | 280 kts | 268° |
| 2026-05-04 19:37 | 49.17521 | 2.32153 | 8922 ft | 281 kts | 268° |
| 2026-05-04 19:37 | 49.17438 | 2.29160 | 8685 ft | 281 kts | 268° |
| 2026-05-04 19:37 | 49.17118 | 2.26254 | 8423 ft | 278 kts | 248° |
| 2026-05-04 19:38 | 49.16160 | 2.23755 | 8160 ft | 269 kts | 233° |
| 2026-05-04 19:38 | 49.15041 | 2.21484 | 7900 ft | 266 kts | 232° |
| 2026-05-04 19:38 | 49.13917 | 2.19255 | 7519 ft | 262 kts | 232° |
| 2026-05-04 19:38 | 49.12804 | 2.17049 | 7101 ft | 261 kts | 232° |
| 2026-05-04 19:39 | 49.11700 | 2.14850 | 6731 ft | 260 kts | 232° |
| 2026-05-04 19:39 | 49.10598 | 2.12665 | 6360 ft | 259 kts | 232° |
| 2026-05-04 19:39 | 49.09502 | 2.10500 | 6068 ft | 257 kts | 231° |
| 2026-05-04 19:39 | 49.08406 | 2.08341 | 5803 ft | 257 kts | 232° |
| 2026-05-04 19:40 | 49.07313 | 2.06192 | 5628 ft | 257 kts | 231° |
| 2026-05-04 19:40 | 49.06215 | 2.04044 | 5501 ft | 257 kts | 231° |
| 2026-05-04 19:40 | 49.04972 | 2.02119 | 5358 ft | 255 kts | 212° |
| 2026-05-04 19:40 | 49.03326 | 2.01252 | 5235 ft | 251 kts | 182° |
| 2026-05-04 19:41 | 49.01667 | 2.01694 | 5091 ft | 233 kts | 152° |
| 2026-05-04 19:41 | 49.00504 | 2.03249 | 5006 ft | 221 kts | 120° |
| 2026-05-04 19:41 | 48.99831 | 2.05354 | 5011 ft | 221 kts | 111° |
| 2026-05-04 19:41 | 48.99236 | 2.07495 | 5001 ft | 222 kts | 111° |
| 2026-05-04 19:42 | 48.98636 | 2.09662 | 4997 ft | 222 kts | 111° |
| 2026-05-04 19:42 | 48.98035 | 2.11825 | 5002 ft | 221 kts | 111° |
| 2026-05-04 19:42 | 48.97440 | 2.13983 | 5001 ft | 221 kts | 109° |
| 2026-05-04 19:42 | 48.97211 | 2.16269 | 5002 ft | 217 kts | 88° |
| 2026-05-04 19:43 | 48.97282 | 2.18453 | 4999 ft | 195 kts | 85° |
| 2026-05-04 19:43 | 48.97381 | 2.20481 | 4967 ft | 191 kts | 85° |
| 2026-05-04 19:43 | 48.97482 | 2.22476 | 4724 ft | 187 kts | 85° |
| 2026-05-04 19:43 | 48.97583 | 2.24454 | 4485 ft | 187 kts | 85° |
| 2026-05-04 19:44 | 48.97687 | 2.26418 | 4245 ft | 186 kts | 84° |
| 2026-05-04 19:44 | 48.97793 | 2.28382 | 3998 ft | 186 kts | 84° |
| 2026-05-04 19:44 | 48.97896 | 2.30310 | 3758 ft | 185 kts | 84° |
| 2026-05-04 19:44 | 48.97996 | 2.32256 | 3517 ft | 184 kts | 84° |
| 2026-05-04 19:45 | 48.98097 | 2.34204 | 3273 ft | 185 kts | 84° |
| 2026-05-04 19:45 | 48.98202 | 2.36148 | 3022 ft | 184 kts | 84° |
| 2026-05-04 19:45 | 48.98308 | 2.38093 | 2783 ft | 184 kts | 84° |
| 2026-05-04 19:45 | 48.98411 | 2.40029 | 2534 ft | 183 kts | 84° |
| 2026-05-04 19:46 | 48.98515 | 2.41959 | 2286 ft | 182 kts | 84° |
| 2026-05-04 19:46 | 48.98611 | 2.43772 | 2039 ft | 161 kts | 84° |
| 2026-05-04 19:46 | 48.98698 | 2.45410 | 1816 ft | 151 kts | 84° |
| 2026-05-04 19:46 | 48.98784 | 2.46979 | 1635 ft | 148 kts | 84° |
| 2026-05-04 19:47 | 48.98865 | 2.48538 | 1452 ft | 147 kts | 85° |
| 2026-05-04 19:47 | 48.98950 | 2.50091 | 1217 ft | 147 kts | 84° |
| 2026-05-04 19:47 | 48.99040 | 2.51645 | 1006 ft | 147 kts | 85° |
| 2026-05-04 19:47 | 48.99119 | 2.53194 | 824 ft | 147 kts | 84° |
| 2026-05-04 19:48 | 48.99198 | 2.54732 | 637 ft | 147 kts | 84° |
| 2026-05-04 19:48 | 48.99277 | 2.56284 | 427 ft | 146 kts | 84° |
| 2026-05-04 19:48 | 48.99356 | 2.57760 | 365 ft | 126 kts | 85° |
| 2026-05-04 19:48 | 48.99416 | 2.58898 | 364 ft | 90 kts | 85° |
| 2026-05-04 19:49 | 48.99456 | 2.59655 | 362 ft | 49 kts | 85° |
| 2026-05-04 19:49 | 48.99510 | 2.59915 | 368 ft | 15 kts | 42° |
| 2026-05-04 19:49 | 48.99606 | 2.59977 | 367 ft | 15 kts | 6° |
| 2026-05-04 19:49 | 48.99701 | 2.59972 | 362 ft | 13 kts | 355° |
| 2026-05-04 19:50 | 48.99790 | 2.59962 | 368 ft | 15 kts | 355° |
| 2026-05-04 19:50 | 48.99894 | 2.59992 | 369 ft | 14 kts | 41° |
| 2026-05-04 19:50 | 48.99966 | 2.60063 | 367 ft | 10 kts | 17° |
| 2026-05-04 19:50 | 49.00008 | 2.60044 | 365 ft | 7 kts | 330° |
| 2026-05-04 19:51 | 49.00072 | 2.59978 | 368 ft | 14 kts | 314° |
| 2026-05-04 19:51 | 49.00093 | 2.59819 | 363 ft | 18 kts | 267° |
| 2026-05-04 19:51 | 49.00082 | 2.59604 | 366 ft | 22 kts | 265° |
| 2026-05-04 19:51 | 49.00069 | 2.59347 | 364 ft | 25 kts | 265° |
| 2026-05-04 19:52 | 49.00056 | 2.59098 | 365 ft | 22 kts | 265° |
| 2026-05-04 19:52 | 49.00045 | 2.58882 | 368 ft | 19 kts | 265° |
| 2026-05-04 19:52 | 49.00034 | 2.58703 | 362 ft | 15 kts | 264° |
| 2026-05-04 19:52 | 49.00025 | 2.58553 | 362 ft | 15 kts | 265° |
| 2026-05-04 19:53 | 49.00015 | 2.58378 | 367 ft | 18 kts | 265° |
| 2026-05-04 19:53 | 49.00003 | 2.58167 | 364 ft | 21 kts | 265° |
| 2026-05-04 19:53 | 48.99990 | 2.57926 | 367 ft | 24 kts | 265° |
| 2026-05-04 19:53 | 48.99976 | 2.57659 | 367 ft | 26 kts | 265° |
| 2026-05-04 19:54 | 48.99968 | 2.57484 | 362 ft | 24 kts | 265° |
| 2026-05-04 19:54 | 48.99956 | 2.57242 | 362 ft | 22 kts | 265° |
| 2026-05-04 19:54 | 48.99940 | 2.56958 | 364 ft | 19 kts | 265° |
| 2026-05-04 19:54 | 48.99930 | 2.56765 | 368 ft | 18 kts | 265° |
| 2026-05-04 19:55 | 48.99920 | 2.56584 | 364 ft | 17 kts | 265° |
| 2026-05-04 19:55 | 48.99913 | 2.56467 | 367 ft | 16 kts | 265° |
| 2026-05-04 19:55 | 48.99901 | 2.56241 | 366 ft | 18 kts | 265° |
| 2026-05-04 19:55 | 48.99894 | 2.56107 | 362 ft | 20 kts | 265° |
| 2026-05-04 19:56 | 48.99897 | 2.55909 | 364 ft | 18 kts | 281° |
| 2026-05-04 19:56 | 48.99934 | 2.55739 | 366 ft | 16 kts | 299° |
| 2026-05-04 19:56 | 48.99986 | 2.55593 | 368 ft | 15 kts | 285° |
| 2026-05-04 19:56 | 48.99986 | 2.55445 | 368 ft | 14 kts | 264° |
| 2026-05-04 19:57 | 48.99977 | 2.55304 | 367 ft | 13 kts | 264° |
| 2026-05-04 19:57 | 48.99969 | 2.55168 | 362 ft | 12 kts | 265° |
| 2026-05-04 19:57 | 48.99961 | 2.55021 | 366 ft | 16 kts | 265° |
| 2026-05-04 19:57 | 48.99951 | 2.54828 | 366 ft | 21 kts | 265° |
| 2026-05-04 19:58 | 48.99941 | 2.54610 | 363 ft | 20 kts | 266° |
| 2026-05-04 19:58 | 48.99931 | 2.54398 | 361 ft | 20 kts | 266° |
| 2026-05-04 19:58 | 48.99918 | 2.54193 | 367 ft | 19 kts | 265° |
| 2026-05-04 19:58 | 48.99912 | 2.54020 | 366 ft | 9 kts | 281° |
| 2026-05-04 19:59 | 48.99944 | 2.53990 | 368 ft | 4 kts | 354° |
| 2026-05-04 19:59 | 48.99969 | 2.53998 | 366 ft | 3 kts | 10° |
| 2026-05-04 19:59 | 48.99989 | 2.53997 | 366 ft | 0 kts | 359° |